sensor_id;sensor_type;location;lat;lon;timestamp;P1;durP1;ratioP1;P2;durP2;ratioP2
58898;SDS011;44680;48.342;7.856;2023-02-16T00:01:26;28.55;;;15.10;;
58898;SDS011;44680;48.342;7.856;2023-02-16T00:03:54;31.08;;;15.70;;
58898;SDS011;44680;48.342;7.856;2023-02-16T00:06:20;29.52;;;15.15;;
58898;SDS011;44680;48.342;7.856;2023-02-16T00:08:47;30.40;;;15.40;;
58898;SDS011;44680;48.342;7.856;2023-02-16T00:11:16;30.45;;;15.30;;
58898;SDS011;44680;48.342;7.856;2023-02-16T00:14:02;28.65;;;14.57;;
58898;SDS011;44680;48.342;7.856;2023-02-16T00:16:28;28.40;;;14.43;;
58898;SDS011;44680;48.342;7.856;2023-02-16T00:18:54;30.23;;;14.85;;
58898;SDS011;44680;48.342;7.856;2023-02-16T00:21:19;28.83;;;14.48;;
58898;SDS011;44680;48.342;7.856;2023-02-16T00:23:45;30.08;;;15.68;;
58898;SDS011;44680;48.342;7.856;2023-02-16T00:26:16;26.92;;;14.05;;
58898;SDS011;44680;48.342;7.856;2023-02-16T00:28:43;25.80;;;13.57;;
58898;SDS011;44680;48.342;7.856;2023-02-16T00:31:13;27.50;;;14.52;;
58898;SDS011;44680;48.342;7.856;2023-02-16T00:33:41;27.85;;;13.27;;
58898;SDS011;44680;48.342;7.856;2023-02-16T00:36:07;26.15;;;13.30;;
58898;SDS011;44680;48.342;7.856;2023-02-16T00:38:32;25.70;;;13.45;;
58898;SDS011;44680;48.342;7.856;2023-02-16T00:40:57;25.63;;;12.60;;
58898;SDS011;44680;48.342;7.856;2023-02-16T00:43:24;28.05;;;13.35;;
58898;SDS011;44680;48.342;7.856;2023-02-16T00:45:51;26.45;;;13.55;;
58898;SDS011;44680;48.342;7.856;2023-02-16T00:48:17;26.20;;;13.07;;
58898;SDS011;44680;48.342;7.856;2023-02-16T00:50:42;29.33;;;13.18;;
58898;SDS011;44680;48.342;7.856;2023-02-16T00:53:08;25.67;;;12.90;;
58898;SDS011;44680;48.342;7.856;2023-02-16T00:55:35;26.50;;;13.27;;
58898;SDS011;44680;48.342;7.856;2023-02-16T00:58:04;28.55;;;13.45;;
58898;SDS011;44680;48.342;7.856;2023-02-16T01:00:41;25.35;;;12.70;;
58898;SDS011;44680;48.342;7.856;2023-02-16T01:03:10;25.35;;;12.55;;
58898;SDS011;44680;48.342;7.856;2023-02-16T01:05:37;27.52;;;13.70;;
58898;SDS011;44680;48.342;7.856;2023-02-16T01:08:07;29.20;;;14.15;;
58898;SDS011;44680;48.342;7.856;2023-02-16T01:10:52;28.38;;;13.63;;
58898;SDS011;44680;48.342;7.856;2023-02-16T01:13:27;27.38;;;13.20;;
58898;SDS011;44680;48.342;7.856;2023-02-16T01:15:53;26.75;;;12.98;;
58898;SDS011;44680;48.342;7.856;2023-02-16T01:18:19;27.67;;;12.65;;
58898;SDS011;44680;48.342;7.856;2023-02-16T01:20:45;26.23;;;12.85;;
58898;SDS011;44680;48.342;7.856;2023-02-16T01:23:11;23.02;;;12.27;;
58898;SDS011;44680;48.342;7.856;2023-02-16T01:25:36;28.05;;;13.73;;
58898;SDS011;44680;48.342;7.856;2023-02-16T01:28:02;28.77;;;13.15;;
58898;SDS011;44680;48.342;7.856;2023-02-16T01:30:27;26.23;;;13.45;;
58898;SDS011;44680;48.342;7.856;2023-02-16T01:32:53;25.13;;;12.90;;
58898;SDS011;44680;48.342;7.856;2023-02-16T01:35:19;26.02;;;13.68;;
58898;SDS011;44680;48.342;7.856;2023-02-16T01:37:46;29.95;;;13.63;;
58898;SDS011;44680;48.342;7.856;2023-02-16T01:40:54;28.65;;;13.95;;
58898;SDS011;44680;48.342;7.856;2023-02-16T01:43:09;26.95;;;13.13;;
58898;SDS011;44680;48.342;7.856;2023-02-16T01:45:54;25.83;;;12.82;;
58898;SDS011;44680;48.342;7.856;2023-02-16T01:48:25;26.10;;;13.55;;
58898;SDS011;44680;48.342;7.856;2023-02-16T01:51:06;27.45;;;13.93;;
58898;SDS011;44680;48.342;7.856;2023-02-16T01:53:49;27.75;;;13.32;;
58898;SDS011;44680;48.342;7.856;2023-02-16T01:59:04;27.00;;;13.52;;
58898;SDS011;44680;48.342;7.856;2023-02-16T02:01:38;27.25;;;14.25;;
58898;SDS011;44680;48.342;7.856;2023-02-16T02:04:10;26.30;;;12.90;;
58898;SDS011;44680;48.342;7.856;2023-02-16T02:06:57;24.42;;;12.60;;
58898;SDS011;44680;48.342;7.856;2023-02-16T02:09:34;25.05;;;12.25;;
58898;SDS011;44680;48.342;7.856;2023-02-16T02:12:12;27.60;;;12.90;;
58898;SDS011;44680;48.342;7.856;2023-02-16T02:14:45;26.40;;;12.75;;
58898;SDS011;44680;48.342;7.856;2023-02-16T02:17:13;25.80;;;12.90;;
58898;SDS011;44680;48.342;7.856;2023-02-16T02:25:54;27.80;;;12.05;;
58898;SDS011;44680;48.342;7.856;2023-02-16T02:30:30;23.35;;;11.57;;
58898;SDS011;44680;48.342;7.856;2023-02-16T02:33:45;23.63;;;12.25;;
58898;SDS011;44680;48.342;7.856;2023-02-16T02:39:03;23.17;;;11.95;;
58898;SDS011;44680;48.342;7.856;2023-02-16T02:44:29;23.20;;;11.57;;
58898;SDS011;44680;48.342;7.856;2023-02-16T02:46:55;24.95;;;11.13;;
58898;SDS011;44680;48.342;7.856;2023-02-16T02:49:21;26.08;;;12.15;;
58898;SDS011;44680;48.342;7.856;2023-02-16T02:51:46;23.60;;;12.02;;
58898;SDS011;44680;48.342;7.856;2023-02-16T02:57:14;26.73;;;12.20;;
58898;SDS011;44680;48.342;7.856;2023-02-16T03:00:24;21.80;;;11.60;;
58898;SDS011;44680;48.342;7.856;2023-02-16T03:03:06;22.80;;;11.25;;
58898;SDS011;44680;48.342;7.856;2023-02-16T03:05:37;22.08;;;10.52;;
58898;SDS011;44680;48.342;7.856;2023-02-16T03:08:07;24.33;;;11.60;;
58898;SDS011;44680;48.342;7.856;2023-02-16T03:10:46;24.05;;;10.70;;
58898;SDS011;44680;48.342;7.856;2023-02-16T03:13:33;22.63;;;11.00;;
58898;SDS011;44680;48.342;7.856;2023-02-16T03:16:03;25.10;;;11.27;;
58898;SDS011;44680;48.342;7.856;2023-02-16T03:18:33;22.67;;;11.30;;
58898;SDS011;44680;48.342;7.856;2023-02-16T03:21:18;23.67;;;10.93;;
58898;SDS011;44680;48.342;7.856;2023-02-16T03:24:03;22.45;;;11.20;;
58898;SDS011;44680;48.342;7.856;2023-02-16T03:26:49;24.45;;;11.23;;
58898;SDS011;44680;48.342;7.856;2023-02-16T03:29:33;22.40;;;11.82;;
58898;SDS011;44680;48.342;7.856;2023-02-16T03:31:59;20.77;;;11.15;;
58898;SDS011;44680;48.342;7.856;2023-02-16T03:34:24;21.33;;;10.75;;
58898;SDS011;44680;48.342;7.856;2023-02-16T03:36:54;21.15;;;10.90;;
58898;SDS011;44680;48.342;7.856;2023-02-16T03:39:23;21.83;;;11.02;;
58898;SDS011;44680;48.342;7.856;2023-02-16T03:41:49;25.15;;;11.00;;
58898;SDS011;44680;48.342;7.856;2023-02-16T03:44:16;23.67;;;10.93;;
58898;SDS011;44680;48.342;7.856;2023-02-16T03:46:42;22.58;;;11.48;;
58898;SDS011;44680;48.342;7.856;2023-02-16T03:49:07;21.60;;;10.90;;
58898;SDS011;44680;48.342;7.856;2023-02-16T03:51:32;25.25;;;10.95;;
58898;SDS011;44680;48.342;7.856;2023-02-16T03:53:58;22.90;;;11.60;;
58898;SDS011;44680;48.342;7.856;2023-02-16T03:56:23;23.88;;;11.02;;
58898;SDS011;44680;48.342;7.856;2023-02-16T03:58:48;24.10;;;10.90;;
58898;SDS011;44680;48.342;7.856;2023-02-16T04:01:14;23.63;;;11.57;;
58898;SDS011;44680;48.342;7.856;2023-02-16T04:03:39;23.50;;;11.50;;
58898;SDS011;44680;48.342;7.856;2023-02-16T04:06:04;23.63;;;10.73;;
58898;SDS011;44680;48.342;7.856;2023-02-16T04:08:30;25.38;;;12.15;;
58898;SDS011;44680;48.342;7.856;2023-02-16T04:10:55;21.38;;;10.93;;
58898;SDS011;44680;48.342;7.856;2023-02-16T04:13:21;24.95;;;11.45;;
58898;SDS011;44680;48.342;7.856;2023-02-16T04:15:47;24.65;;;11.60;;
58898;SDS011;44680;48.342;7.856;2023-02-16T04:18:12;22.45;;;11.45;;
58898;SDS011;44680;48.342;7.856;2023-02-16T04:20:38;22.63;;;11.57;;
58898;SDS011;44680;48.342;7.856;2023-02-16T04:23:03;25.88;;;11.65;;
58898;SDS011;44680;48.342;7.856;2023-02-16T04:25:29;23.73;;;11.93;;
58898;SDS011;44680;48.342;7.856;2023-02-16T04:27:54;25.08;;;11.90;;
58898;SDS011;44680;48.342;7.856;2023-02-16T04:30:21;24.23;;;11.85;;
58898;SDS011;44680;48.342;7.856;2023-02-16T04:32:48;21.40;;;10.32;;
58898;SDS011;44680;48.342;7.856;2023-02-16T04:35:13;24.20;;;11.80;;
58898;SDS011;44680;48.342;7.856;2023-02-16T04:37:39;27.75;;;12.85;;
58898;SDS011;44680;48.342;7.856;2023-02-16T04:40:05;24.00;;;12.00;;
58898;SDS011;44680;48.342;7.856;2023-02-16T04:42:32;27.00;;;13.43;;
58898;SDS011;44680;48.342;7.856;2023-02-16T04:44:57;26.13;;;11.63;;
58898;SDS011;44680;48.342;7.856;2023-02-16T04:47:22;26.00;;;12.57;;
58898;SDS011;44680;48.342;7.856;2023-02-16T04:49:50;23.15;;;12.02;;
58898;SDS011;44680;48.342;7.856;2023-02-16T04:52:16;24.88;;;13.20;;
58898;SDS011;44680;48.342;7.856;2023-02-16T04:54:41;25.73;;;11.52;;
58898;SDS011;44680;48.342;7.856;2023-02-16T04:57:07;25.95;;;12.73;;
58898;SDS011;44680;48.342;7.856;2023-02-16T04:59:33;29.10;;;13.50;;
58898;SDS011;44680;48.342;7.856;2023-02-16T05:01:58;26.52;;;13.90;;
58898;SDS011;44680;48.342;7.856;2023-02-16T05:04:23;26.05;;;13.07;;
58898;SDS011;44680;48.342;7.856;2023-02-16T05:06:49;29.90;;;13.77;;
58898;SDS011;44680;48.342;7.856;2023-02-16T05:09:14;26.60;;;12.98;;
58898;SDS011;44680;48.342;7.856;2023-02-16T05:11:40;26.90;;;13.00;;
58898;SDS011;44680;48.342;7.856;2023-02-16T05:14:25;25.48;;;12.50;;
58898;SDS011;44680;48.342;7.856;2023-02-16T05:19:43;26.80;;;13.40;;
58898;SDS011;44680;48.342;7.856;2023-02-16T05:22:10;28.73;;;13.27;;
58898;SDS011;44680;48.342;7.856;2023-02-16T05:24:36;27.80;;;13.05;;
58898;SDS011;44680;48.342;7.856;2023-02-16T05:27:02;27.92;;;14.25;;
58898;SDS011;44680;48.342;7.856;2023-02-16T05:29:28;29.20;;;14.40;;
58898;SDS011;44680;48.342;7.856;2023-02-16T05:31:54;28.10;;;13.23;;
58898;SDS011;44680;48.342;7.856;2023-02-16T05:34:22;28.35;;;13.85;;
58898;SDS011;44680;48.342;7.856;2023-02-16T05:36:47;28.27;;;14.10;;
58898;SDS011;44680;48.342;7.856;2023-02-16T05:39:13;27.38;;;13.68;;
58898;SDS011;44680;48.342;7.856;2023-02-16T05:41:38;30.00;;;14.57;;
58898;SDS011;44680;48.342;7.856;2023-02-16T05:44:03;30.50;;;14.68;;
58898;SDS011;44680;48.342;7.856;2023-02-16T05:46:30;30.63;;;13.90;;
58898;SDS011;44680;48.342;7.856;2023-02-16T05:48:57;31.35;;;15.30;;
58898;SDS011;44680;48.342;7.856;2023-02-16T05:51:23;29.58;;;14.20;;
58898;SDS011;44680;48.342;7.856;2023-02-16T05:53:48;27.38;;;13.35;;
58898;SDS011;44680;48.342;7.856;2023-02-16T05:56:14;28.98;;;14.65;;
58898;SDS011;44680;48.342;7.856;2023-02-16T05:58:39;30.17;;;13.75;;
58898;SDS011;44680;48.342;7.856;2023-02-16T06:01:05;28.50;;;14.38;;
58898;SDS011;44680;48.342;7.856;2023-02-16T06:03:30;31.60;;;15.35;;
58898;SDS011;44680;48.342;7.856;2023-02-16T06:05:57;29.75;;;15.23;;
58898;SDS011;44680;48.342;7.856;2023-02-16T06:08:24;32.70;;;15.50;;
58898;SDS011;44680;48.342;7.856;2023-02-16T06:10:49;31.40;;;15.32;;
58898;SDS011;44680;48.342;7.856;2023-02-16T06:13:15;32.08;;;14.40;;
58898;SDS011;44680;48.342;7.856;2023-02-16T06:15:41;30.77;;;14.68;;
58898;SDS011;44680;48.342;7.856;2023-02-16T06:18:07;29.73;;;14.43;;
58898;SDS011;44680;48.342;7.856;2023-02-16T06:20:33;29.15;;;14.82;;
58898;SDS011;44680;48.342;7.856;2023-02-16T06:22:58;31.83;;;14.85;;
58898;SDS011;44680;48.342;7.856;2023-02-16T06:25:23;34.42;;;15.50;;
58898;SDS011;44680;48.342;7.856;2023-02-16T06:27:49;28.75;;;14.57;;
58898;SDS011;44680;48.342;7.856;2023-02-16T06:30:14;31.88;;;15.57;;
58898;SDS011;44680;48.342;7.856;2023-02-16T06:32:40;28.58;;;13.93;;
58898;SDS011;44680;48.342;7.856;2023-02-16T06:35:05;29.60;;;14.38;;
58898;SDS011;44680;48.342;7.856;2023-02-16T06:37:31;32.92;;;14.70;;
58898;SDS011;44680;48.342;7.856;2023-02-16T06:39:56;29.80;;;14.52;;
58898;SDS011;44680;48.342;7.856;2023-02-16T06:42:21;30.55;;;15.55;;
58898;SDS011;44680;48.342;7.856;2023-02-16T06:44:47;30.58;;;14.48;;
58898;SDS011;44680;48.342;7.856;2023-02-16T06:47:12;32.05;;;14.73;;
58898;SDS011;44680;48.342;7.856;2023-02-16T06:49:37;29.52;;;14.80;;
58898;SDS011;44680;48.342;7.856;2023-02-16T06:52:03;31.35;;;14.50;;
58898;SDS011;44680;48.342;7.856;2023-02-16T06:54:28;31.33;;;14.98;;
58898;SDS011;44680;48.342;7.856;2023-02-16T06:56:54;32.35;;;15.68;;
58898;SDS011;44680;48.342;7.856;2023-02-16T06:59:19;32.88;;;14.88;;
58898;SDS011;44680;48.342;7.856;2023-02-16T07:01:44;30.75;;;14.93;;
58898;SDS011;44680;48.342;7.856;2023-02-16T07:04:10;30.98;;;14.90;;
58898;SDS011;44680;48.342;7.856;2023-02-16T07:06:35;31.05;;;15.40;;
58898;SDS011;44680;48.342;7.856;2023-02-16T07:09:01;31.63;;;15.23;;
58898;SDS011;44680;48.342;7.856;2023-02-16T07:11:26;33.20;;;16.08;;
58898;SDS011;44680;48.342;7.856;2023-02-16T07:13:52;31.75;;;14.43;;
58898;SDS011;44680;48.342;7.856;2023-02-16T07:16:17;33.80;;;15.88;;
58898;SDS011;44680;48.342;7.856;2023-02-16T07:18:43;33.65;;;17.17;;
58898;SDS011;44680;48.342;7.856;2023-02-16T07:21:09;34.70;;;16.55;;
58898;SDS011;44680;48.342;7.856;2023-02-16T07:23:34;31.15;;;16.33;;
58898;SDS011;44680;48.342;7.856;2023-02-16T07:25:59;37.10;;;17.10;;
58898;SDS011;44680;48.342;7.856;2023-02-16T07:28:25;30.67;;;15.35;;
58898;SDS011;44680;48.342;7.856;2023-02-16T07:30:50;33.92;;;16.80;;
58898;SDS011;44680;48.342;7.856;2023-02-16T07:33:16;35.13;;;16.92;;
58898;SDS011;44680;48.342;7.856;2023-02-16T07:35:42;33.97;;;16.92;;
58898;SDS011;44680;48.342;7.856;2023-02-16T07:38:07;35.28;;;17.98;;
58898;SDS011;44680;48.342;7.856;2023-02-16T07:40:33;33.45;;;18.00;;
58898;SDS011;44680;48.342;7.856;2023-02-16T07:43:00;33.95;;;16.80;;
58898;SDS011;44680;48.342;7.856;2023-02-16T07:45:26;32.88;;;16.73;;
58898;SDS011;44680;48.342;7.856;2023-02-16T07:47:52;33.72;;;16.58;;
58898;SDS011;44680;48.342;7.856;2023-02-16T07:50:17;33.70;;;16.25;;
58898;SDS011;44680;48.342;7.856;2023-02-16T07:52:43;32.88;;;16.02;;
58898;SDS011;44680;48.342;7.856;2023-02-16T07:55:09;32.95;;;16.23;;
58898;SDS011;44680;48.342;7.856;2023-02-16T07:57:36;32.47;;;16.58;;
58898;SDS011;44680;48.342;7.856;2023-02-16T08:00:02;28.02;;;15.23;;
58898;SDS011;44680;48.342;7.856;2023-02-16T08:02:29;30.63;;;15.35;;
58898;SDS011;44680;48.342;7.856;2023-02-16T08:04:54;27.45;;;14.77;;
58898;SDS011;44680;48.342;7.856;2023-02-16T08:07:20;29.48;;;14.93;;
58898;SDS011;44680;48.342;7.856;2023-02-16T08:09:45;26.95;;;13.75;;
58898;SDS011;44680;48.342;7.856;2023-02-16T08:12:11;28.65;;;13.90;;
58898;SDS011;44680;48.342;7.856;2023-02-16T08:14:37;24.90;;;13.05;;
58898;SDS011;44680;48.342;7.856;2023-02-16T08:17:03;28.38;;;14.07;;
58898;SDS011;44680;48.342;7.856;2023-02-16T08:19:29;31.05;;;14.27;;
58898;SDS011;44680;48.342;7.856;2023-02-16T08:21:55;28.98;;;13.82;;
58898;SDS011;44680;48.342;7.856;2023-02-16T08:24:20;27.15;;;13.32;;
58898;SDS011;44680;48.342;7.856;2023-02-16T08:26:45;23.75;;;11.93;;
58898;SDS011;44680;48.342;7.856;2023-02-16T08:29:14;25.90;;;12.18;;
58898;SDS011;44680;48.342;7.856;2023-02-16T08:31:42;25.13;;;12.07;;
58898;SDS011;44680;48.342;7.856;2023-02-16T08:34:10;25.73;;;12.95;;
58898;SDS011;44680;48.342;7.856;2023-02-16T08:36:37;26.88;;;13.13;;
58898;SDS011;44680;48.342;7.856;2023-02-16T08:39:10;28.77;;;13.88;;
58898;SDS011;44680;48.342;7.856;2023-02-16T08:41:36;33.03;;;14.73;;
58898;SDS011;44680;48.342;7.856;2023-02-16T08:44:02;33.40;;;14.45;;
58898;SDS011;44680;48.342;7.856;2023-02-16T08:46:30;31.30;;;14.10;;
58898;SDS011;44680;48.342;7.856;2023-02-16T08:48:56;24.60;;;12.50;;
58898;SDS011;44680;48.342;7.856;2023-02-16T08:51:23;25.15;;;12.57;;
58898;SDS011;44680;48.342;7.856;2023-02-16T08:53:49;22.88;;;11.50;;
58898;SDS011;44680;48.342;7.856;2023-02-16T08:56:16;24.05;;;13.10;;
58898;SDS011;44680;48.342;7.856;2023-02-16T08:58:42;26.60;;;13.00;;
58898;SDS011;44680;48.342;7.856;2023-02-16T09:01:08;26.70;;;14.45;;
58898;SDS011;44680;48.342;7.856;2023-02-16T09:03:34;27.33;;;15.07;;
58898;SDS011;44680;48.342;7.856;2023-02-16T09:06:01;26.10;;;14.15;;
58898;SDS011;44680;48.342;7.856;2023-02-16T09:08:27;28.80;;;14.93;;
58898;SDS011;44680;48.342;7.856;2023-02-16T09:10:52;28.35;;;16.60;;
58898;SDS011;44680;48.342;7.856;2023-02-16T09:13:18;31.00;;;16.92;;
58898;SDS011;44680;48.342;7.856;2023-02-16T09:15:44;30.73;;;16.25;;
58898;SDS011;44680;48.342;7.856;2023-02-16T09:18:10;29.10;;;15.52;;
58898;SDS011;44680;48.342;7.856;2023-02-16T09:20:39;29.00;;;16.60;;
58898;SDS011;44680;48.342;7.856;2023-02-16T09:23:05;30.27;;;15.30;;
58898;SDS011;44680;48.342;7.856;2023-02-16T09:25:35;31.65;;;17.35;;
58898;SDS011;44680;48.342;7.856;2023-02-16T09:28:01;33.72;;;18.65;;
58898;SDS011;44680;48.342;7.856;2023-02-16T09:30:27;31.45;;;18.50;;
58898;SDS011;44680;48.342;7.856;2023-02-16T09:32:52;34.55;;;18.30;;
58898;SDS011;44680;48.342;7.856;2023-02-16T09:35:18;29.95;;;16.83;;
58898;SDS011;44680;48.342;7.856;2023-02-16T09:37:45;32.28;;;17.60;;
58898;SDS011;44680;48.342;7.856;2023-02-16T09:40:11;30.55;;;16.40;;
58898;SDS011;44680;48.342;7.856;2023-02-16T09:45:37;29.63;;;15.85;;
58898;SDS011;44680;48.342;7.856;2023-02-16T09:48:04;30.38;;;15.38;;
58898;SDS011;44680;48.342;7.856;2023-02-16T09:50:30;27.77;;;14.90;;
58898;SDS011;44680;48.342;7.856;2023-02-16T09:52:58;28.70;;;15.70;;
58898;SDS011;44680;48.342;7.856;2023-02-16T09:55:25;24.20;;;10.13;;
58898;SDS011;44680;48.342;7.856;2023-02-16T10:03:01;19.65;;;10.45;;
58898;SDS011;44680;48.342;7.856;2023-02-16T10:05:54;22.48;;;10.85;;
58898;SDS011;44680;48.342;7.856;2023-02-16T10:11:41;22.50;;;11.55;;
58898;SDS011;44680;48.342;7.856;2023-02-16T10:16:53;22.88;;;10.93;;
58898;SDS011;44680;48.342;7.856;2023-02-16T10:19:26;24.88;;;11.30;;
58898;SDS011;44680;48.342;7.856;2023-02-16T10:21:55;21.85;;;9.77;;
58898;SDS011;44680;48.342;7.856;2023-02-16T10:24:23;19.92;;;9.18;;
58898;SDS011;44680;48.342;7.856;2023-02-16T10:26:52;18.73;;;8.32;;
58898;SDS011;44680;48.342;7.856;2023-02-16T10:29:20;19.15;;;8.90;;
58898;SDS011;44680;48.342;7.856;2023-02-16T10:32:33;15.93;;;8.10;;
58898;SDS011;44680;48.342;7.856;2023-02-16T10:42:49;19.58;;;10.40;;
58898;SDS011;44680;48.342;7.856;2023-02-16T10:48:11;17.88;;;7.35;;
58898;SDS011;44680;48.342;7.856;2023-02-16T10:50:41;18.58;;;8.02;;
58898;SDS011;44680;48.342;7.856;2023-02-16T10:54:06;17.48;;;8.40;;
58898;SDS011;44680;48.342;7.856;2023-02-16T10:59:04;19.60;;;8.77;;
58898;SDS011;44680;48.342;7.856;2023-02-16T11:04:04;17.38;;;8.52;;
58898;SDS011;44680;48.342;7.856;2023-02-16T11:06:29;16.73;;;8.63;;
58898;SDS011;44680;48.342;7.856;2023-02-16T11:08:56;16.45;;;7.40;;
58898;SDS011;44680;48.342;7.856;2023-02-16T11:11:25;18.63;;;8.65;;
58898;SDS011;44680;48.342;7.856;2023-02-16T11:13:59;17.63;;;8.05;;
58898;SDS011;44680;48.342;7.856;2023-02-16T11:16:26;15.73;;;7.90;;
58898;SDS011;44680;48.342;7.856;2023-02-16T11:18:57;18.20;;;8.45;;
58898;SDS011;44680;48.342;7.856;2023-02-16T11:24:09;16.57;;;7.97;;
58898;SDS011;44680;48.342;7.856;2023-02-16T11:26:36;19.77;;;8.43;;
58898;SDS011;44680;48.342;7.856;2023-02-16T11:29:06;17.70;;;9.20;;
58898;SDS011;44680;48.342;7.856;2023-02-16T11:31:42;18.23;;;8.50;;
58898;SDS011;44680;48.342;7.856;2023-02-16T11:37:05;20.02;;;9.05;;
58898;SDS011;44680;48.342;7.856;2023-02-16T11:39:40;18.20;;;8.80;;
58898;SDS011;44680;48.342;7.856;2023-02-16T11:42:21;21.70;;;9.10;;
58898;SDS011;44680;48.342;7.856;2023-02-16T11:45:03;19.60;;;8.43;;
58898;SDS011;44680;48.342;7.856;2023-02-16T11:47:35;19.02;;;8.93;;
58898;SDS011;44680;48.342;7.856;2023-02-16T11:52:53;15.57;;;8.60;;
58898;SDS011;44680;48.342;7.856;2023-02-16T11:55:22;18.60;;;9.43;;
58898;SDS011;44680;48.342;7.856;2023-02-16T11:57:50;23.95;;;10.52;;
58898;SDS011;44680;48.342;7.856;2023-02-16T12:00:16;20.90;;;9.35;;
58898;SDS011;44680;48.342;7.856;2023-02-16T12:08:32;20.73;;;9.43;;
58898;SDS011;44680;48.342;7.856;2023-02-16T12:11:11;18.45;;;8.75;;
58898;SDS011;44680;48.342;7.856;2023-02-16T12:16:35;20.30;;;8.93;;
58898;SDS011;44680;48.342;7.856;2023-02-16T12:19:44;16.83;;;8.25;;
58898;SDS011;44680;48.342;7.856;2023-02-16T12:24:57;18.08;;;8.95;;
58898;SDS011;44680;48.342;7.856;2023-02-16T12:28:04;16.70;;;8.07;;
58898;SDS011;44680;48.342;7.856;2023-02-16T12:30:44;17.27;;;8.10;;
58898;SDS011;44680;48.342;7.856;2023-02-16T12:44:23;17.10;;;8.38;;
58898;SDS011;44680;48.342;7.856;2023-02-16T12:46:56;23.42;;;9.63;;
58898;SDS011;44680;48.342;7.856;2023-02-16T12:49:31;18.73;;;8.80;;
58898;SDS011;44680;48.342;7.856;2023-02-16T12:52:06;16.58;;;8.60;;
58898;SDS011;44680;48.342;7.856;2023-02-16T12:54:36;20.00;;;8.27;;
58898;SDS011;44680;48.342;7.856;2023-02-16T12:57:12;21.08;;;7.95;;
58898;SDS011;44680;48.342;7.856;2023-02-16T12:59:50;17.27;;;7.73;;
58898;SDS011;44680;48.342;7.856;2023-02-16T13:02:43;16.92;;;8.23;;
58898;SDS011;44680;48.342;7.856;2023-02-16T13:15:16;16.38;;;8.13;;
58898;SDS011;44680;48.342;7.856;2023-02-16T13:17:48;15.88;;;7.82;;
58898;SDS011;44680;48.342;7.856;2023-02-16T13:20:18;18.73;;;8.88;;
58898;SDS011;44680;48.342;7.856;2023-02-16T13:22:47;15.23;;;7.88;;
58898;SDS011;44680;48.342;7.856;2023-02-16T13:28:21;19.35;;;8.43;;
58898;SDS011;44680;48.342;7.856;2023-02-16T13:33:43;16.77;;;8.38;;
58898;SDS011;44680;48.342;7.856;2023-02-16T13:39:11;18.75;;;8.00;;
58898;SDS011;44680;48.342;7.856;2023-02-16T13:44:19;17.85;;;8.77;;
58898;SDS011;44680;48.342;7.856;2023-02-16T13:46:48;15.20;;;8.02;;
58898;SDS011;44680;48.342;7.856;2023-02-16T13:49:26;25.50;;;9.93;;
58898;SDS011;44680;48.342;7.856;2023-02-16T13:51:56;17.67;;;8.85;;
58898;SDS011;44680;48.342;7.856;2023-02-16T13:54:26;18.88;;;8.25;;
58898;SDS011;44680;48.342;7.856;2023-02-16T13:56:53;17.13;;;8.20;;
58898;SDS011;44680;48.342;7.856;2023-02-16T14:01:47;19.23;;;7.97;;
58898;SDS011;44680;48.342;7.856;2023-02-16T14:06:45;16.83;;;8.50;;
58898;SDS011;44680;48.342;7.856;2023-02-16T14:33:18;19.08;;;8.13;;
58898;SDS011;44680;48.342;7.856;2023-02-16T14:40:55;23.83;;;9.60;;
58898;SDS011;44680;48.342;7.856;2023-02-16T14:43:25;19.35;;;8.93;;
58898;SDS011;44680;48.342;7.856;2023-02-16T14:57:03;22.70;;;11.35;;
58898;SDS011;44680;48.342;7.856;2023-02-16T15:02:23;25.05;;;10.88;;
58898;SDS011;44680;48.342;7.856;2023-02-16T15:04:49;31.42;;;15.52;;
58898;SDS011;44680;48.342;7.856;2023-02-16T15:07:14;24.50;;;11.02;;
58898;SDS011;44680;48.342;7.856;2023-02-16T15:09:42;20.77;;;10.18;;
58898;SDS011;44680;48.342;7.856;2023-02-16T15:12:10;19.77;;;9.05;;
58898;SDS011;44680;48.342;7.856;2023-02-16T15:15:00;22.90;;;10.45;;
58898;SDS011;44680;48.342;7.856;2023-02-16T15:17:29;18.20;;;8.70;;
58898;SDS011;44680;48.342;7.856;2023-02-16T15:20:00;19.58;;;8.73;;
58898;SDS011;44680;48.342;7.856;2023-02-16T15:22:28;19.85;;;8.65;;
58898;SDS011;44680;48.342;7.856;2023-02-16T15:24:55;26.55;;;12.82;;
58898;SDS011;44680;48.342;7.856;2023-02-16T15:27:29;22.85;;;10.52;;
58898;SDS011;44680;48.342;7.856;2023-02-16T15:32:51;15.77;;;7.93;;
58898;SDS011;44680;48.342;7.856;2023-02-16T15:35:30;21.50;;;10.55;;
58898;SDS011;44680;48.342;7.856;2023-02-16T15:38:25;21.10;;;9.60;;
58898;SDS011;44680;48.342;7.856;2023-02-16T15:40:52;19.77;;;8.93;;
58898;SDS011;44680;48.342;7.856;2023-02-16T15:46:02;20.35;;;9.35;;
58898;SDS011;44680;48.342;7.856;2023-02-16T15:48:35;17.35;;;8.77;;
58898;SDS011;44680;48.342;7.856;2023-02-16T15:51:06;22.95;;;11.07;;
58898;SDS011;44680;48.342;7.856;2023-02-16T15:53:42;20.70;;;9.02;;
58898;SDS011;44680;48.342;7.856;2023-02-16T15:56:30;20.60;;;9.27;;
58898;SDS011;44680;48.342;7.856;2023-02-16T15:59:02;19.30;;;9.35;;
58898;SDS011;44680;48.342;7.856;2023-02-16T16:01:42;14.73;;;8.00;;
58898;SDS011;44680;48.342;7.856;2023-02-16T16:04:21;15.95;;;8.32;;
58898;SDS011;44680;48.342;7.856;2023-02-16T16:06:48;13.50;;;6.50;;
58898;SDS011;44680;48.342;7.856;2023-02-16T16:11:55;11.43;;;6.38;;
58898;SDS011;44680;48.342;7.856;2023-02-16T16:14:24;12.50;;;6.05;;
58898;SDS011;44680;48.342;7.856;2023-02-16T16:16:50;12.10;;;6.15;;
58898;SDS011;44680;48.342;7.856;2023-02-16T16:19:18;11.05;;;6.78;;
58898;SDS011;44680;48.342;7.856;2023-02-16T16:21:46;14.70;;;7.07;;
58898;SDS011;44680;48.342;7.856;2023-02-16T16:24:25;13.60;;;6.15;;
58898;SDS011;44680;48.342;7.856;2023-02-16T16:26:57;49.28;;;6.72;;
58898;SDS011;44680;48.342;7.856;2023-02-16T16:30:06;12.07;;;5.68;;
58898;SDS011;44680;48.342;7.856;2023-02-16T16:32:22;17.15;;;6.88;;
58898;SDS011;44680;48.342;7.856;2023-02-16T16:34:48;12.07;;;5.72;;
58898;SDS011;44680;48.342;7.856;2023-02-16T16:37:27;15.70;;;6.10;;
58898;SDS011;44680;48.342;7.856;2023-02-16T16:39:59;10.45;;;5.72;;
58898;SDS011;44680;48.342;7.856;2023-02-16T16:42:28;12.98;;;5.72;;
58898;SDS011;44680;48.342;7.856;2023-02-16T16:44:57;26.30;;;10.35;;
58898;SDS011;44680;48.342;7.856;2023-02-16T16:47:38;15.13;;;6.90;;
58898;SDS011;44680;48.342;7.856;2023-02-16T16:52:39;17.05;;;8.25;;
58898;SDS011;44680;48.342;7.856;2023-02-16T16:57:45;11.15;;;5.80;;
58898;SDS011;44680;48.342;7.856;2023-02-16T17:00:11;24.10;;;11.85;;
58898;SDS011;44680;48.342;7.856;2023-02-16T17:02:37;15.98;;;6.55;;
58898;SDS011;44680;48.342;7.856;2023-02-16T17:05:03;13.73;;;7.47;;
58898;SDS011;44680;48.342;7.856;2023-02-16T17:07:29;11.30;;;5.90;;
58898;SDS011;44680;48.342;7.856;2023-02-16T17:09:54;15.25;;;6.03;;
58898;SDS011;44680;48.342;7.856;2023-02-16T17:12:20;13.32;;;6.43;;
58898;SDS011;44680;48.342;7.856;2023-02-16T17:14:46;14.20;;;6.47;;
58898;SDS011;44680;48.342;7.856;2023-02-16T17:17:11;10.07;;;5.53;;
58898;SDS011;44680;48.342;7.856;2023-02-16T17:19:37;10.05;;;5.80;;
58898;SDS011;44680;48.342;7.856;2023-02-16T17:22:16;15.35;;;7.05;;
58898;SDS011;44680;48.342;7.856;2023-02-16T17:24:43;18.08;;;6.70;;
58898;SDS011;44680;48.342;7.856;2023-02-16T17:27:08;19.60;;;7.85;;